createdAt,value
2022-12-29T00:02:50.881Z,91.17
2022-12-29T00:07:54.708Z,91.38
2022-12-29T00:13:16.890Z,91.62
2022-12-29T00:18:21.059Z,91.62
2022-12-29T00:23:44.177Z,91.60
2022-12-29T00:29:06.809Z,91.50
2022-12-29T00:34:31.368Z,91.51
2022-12-29T00:39:53.911Z,91.48
2022-12-29T00:44:57.811Z,91.34
2022-12-29T00:50:01.662Z,91.28
2022-12-29T00:55:05.671Z,91.07
2022-12-29T01:00:11.212Z,90.94
2022-12-29T01:05:15.065Z,90.78
2022-12-29T01:10:18.874Z,90.62
2022-12-29T01:15:22.925Z,90.59
2022-12-29T01:20:29.010Z,90.65
2022-12-29T01:25:34.030Z,90.66
2022-12-29T01:30:37.783Z,90.77
2022-12-29T01:35:41.608Z,90.87
2022-12-29T01:40:47.390Z,90.87
2022-12-29T01:45:53.399Z,90.94
2022-12-29T01:50:57.257Z,91.07
2022-12-29T01:56:04.571Z,91.13
2022-12-29T02:01:08.528Z,91.23
2022-12-29T02:06:19.926Z,91.13
2022-12-29T02:11:27.638Z,91.26
2022-12-29T02:16:41.966Z,91.20
2022-12-29T02:21:51.248Z,91.33
2022-12-29T02:27:33.115Z,91.56
2022-12-29T02:32:49.919Z,91.65
2022-12-29T02:38:09.210Z,91.68
2022-12-29T02:43:25.211Z,91.71
2022-12-29T02:48:46.510Z,91.75
2022-12-29T02:54:08.831Z,91.82
2022-12-29T02:59:14.128Z,91.74
2022-12-29T03:04:46.536Z,91.85
2022-12-29T03:09:54.882Z,91.90
2022-12-29T03:15:22.499Z,91.80
2022-12-29T03:20:31.050Z,91.72
2022-12-29T03:25:40.420Z,91.46
2022-12-29T03:30:47.456Z,91.43
2022-12-29T03:35:53.920Z,91.38
2022-12-29T03:41:00.131Z,91.83
2022-12-29T03:46:04.827Z,92.25
2022-12-29T03:51:09.462Z,92.52
2022-12-29T03:56:13.332Z,92.86
2022-12-29T04:01:18.782Z,92.99
2022-12-29T04:06:22.905Z,93.16
2022-12-29T04:11:33.356Z,93.27
2022-12-29T04:16:40.266Z,93.38
2022-12-29T04:21:44.845Z,93.10
2022-12-29T04:26:48.546Z,92.98
2022-12-29T04:32:12.621Z,92.69
2022-12-29T04:37:22.461Z,92.45
2022-12-29T04:42:26.940Z,92.24
2022-12-29T04:47:31.740Z,92.22
2022-12-29T04:52:55.972Z,91.99
2022-12-29T04:58:00.452Z,91.91
2022-12-29T05:03:07.183Z,91.76
2022-12-29T05:08:12.985Z,91.48
2022-12-29T05:13:19.539Z,91.42
2022-12-29T05:18:24.631Z,91.25
2022-12-29T05:23:28.501Z,91.07
2022-12-29T05:28:36.903Z,90.92
2022-12-29T05:33:55.125Z,90.77
2022-12-29T05:38:58.949Z,90.84
2022-12-29T05:44:03.769Z,90.67
2022-12-29T05:49:22.604Z,90.50
2022-12-29T05:54:49.521Z,90.38
2022-12-29T05:59:56.728Z,90.23
2022-12-29T06:05:01.012Z,90.25
2022-12-29T06:10:07.306Z,90.02
2022-12-29T06:15:19.560Z,89.92
2022-12-29T06:20:25.910Z,89.76
2022-12-29T06:25:32.248Z,89.62
2022-12-29T06:30:36.208Z,89.65
2022-12-29T06:35:40.345Z,89.42
2022-12-29T06:40:46.422Z,89.25
2022-12-29T06:46:09.109Z,89.03
2022-12-29T06:51:13.021Z,89.00
2022-12-29T06:56:16.803Z,89.09
2022-12-29T07:01:20.840Z,89.05
2022-12-29T07:06:24.922Z,88.63
2022-12-29T07:11:29.101Z,88.52
2022-12-29T07:16:34.194Z,88.67
2022-12-29T07:21:38.069Z,88.94
2022-12-29T07:26:42.950Z,88.57
2022-12-29T07:31:46.857Z,88.60
2022-12-29T07:36:50.916Z,88.64
2022-12-29T07:41:57.161Z,88.49
2022-12-29T07:47:11.036Z,88.15
2022-12-29T07:52:14.930Z,88.26
2022-12-29T07:57:18.763Z,88.27
2022-12-29T08:02:22.923Z,88.46
2022-12-29T08:07:27.864Z,88.46
2022-12-29T08:12:31.641Z,88.18
2022-12-29T08:17:35.485Z,88.28
2022-12-29T08:22:39.247Z,88.13
2022-12-29T08:27:43.084Z,87.69
2022-12-29T08:32:46.800Z,87.33
2022-12-29T08:37:50.527Z,87.24
2022-12-29T08:42:54.292Z,87.33
2022-12-29T08:47:58.106Z,87.06
2022-12-29T08:53:01.988Z,86.85
2022-12-29T08:58:05.733Z,86.82
2022-12-29T09:03:12.408Z,86.81
2022-12-29T09:08:20.887Z,86.64
2022-12-29T09:13:27.587Z,86.49
2022-12-29T09:18:31.626Z,86.43
2022-12-29T09:23:35.926Z,86.07
2022-12-29T09:28:39.930Z,85.98
2022-12-29T09:33:45.994Z,85.98
2022-12-29T09:38:49.765Z,85.97
2022-12-29T09:44:02.548Z,85.58
2022-12-29T09:49:30.483Z,85.45
2022-12-29T09:55:00.527Z,85.35
2022-12-29T10:00:24.462Z,85.12
2022-12-29T10:06:09.845Z,85.08
2022-12-29T10:11:33.538Z,84.93
2022-12-29T10:17:03.998Z,84.79
2022-12-29T10:22:26.275Z,84.69
2022-12-29T10:27:33.444Z,84.13
2022-12-29T10:32:41.111Z,84.07
2022-12-29T10:37:54.820Z,83.98
2022-12-29T10:42:59.658Z,83.95
2022-12-29T10:48:07.791Z,83.67
2022-12-29T10:53:20.831Z,83.39
2022-12-29T10:58:24.389Z,83.02
2022-12-29T11:03:46.413Z,82.39
2022-12-29T11:08:56.477Z,82.18
2022-12-29T11:14:28.211Z,81.93
2022-12-29T11:19:39.171Z,81.82
2022-12-29T11:24:47.108Z,81.61
2022-12-29T11:29:52.392Z,81.33
2022-12-29T11:34:56.467Z,81.08
2022-12-29T11:40:06.881Z,81.06
2022-12-29T11:45:22.544Z,80.58
2022-12-29T11:50:30.822Z,80.64
2022-12-29T11:55:35.002Z,80.16
2022-12-29T12:00:41.668Z,80.14
2022-12-29T12:05:57.984Z,80.05
2022-12-29T12:11:04.653Z,79.93
2022-12-29T12:16:20.588Z,79.93
2022-12-29T12:21:39.249Z,79.97
2022-12-29T12:26:57.777Z,79.84
2022-12-29T12:32:13.404Z,80.10
2022-12-29T12:37:23.081Z,80.17
2022-12-29T12:42:39.237Z,80.13
2022-12-29T12:47:52.973Z,80.31
2022-12-29T12:53:02.884Z,80.52
2022-12-29T12:58:12.757Z,80.68
2022-12-29T13:03:55.341Z,80.87
2022-12-29T13:09:10.468Z,80.98
2022-12-29T13:14:23.174Z,80.77
2022-12-29T13:19:37.866Z,80.46
2022-12-29T13:25:08.870Z,79.97
2022-12-29T13:30:24.020Z,79.58
2022-12-29T13:35:50.264Z,79.41
2022-12-29T13:41:02.246Z,79.34
2022-12-29T13:46:20.497Z,78.98
2022-12-29T13:51:27.955Z,78.72
2022-12-29T13:56:35.185Z,78.43
2022-12-29T14:01:48.764Z,78.31
2022-12-29T14:07:04.889Z,78.29
2022-12-29T14:12:39.509Z,78.15
2022-12-29T14:17:43.883Z,78.20
2022-12-29T14:22:59.669Z,78.44
2022-12-29T14:28:17.416Z,78.94
2022-12-29T14:33:23.191Z,79.00
2022-12-29T14:38:29.242Z,78.93
2022-12-29T14:43:33.007Z,79.04
2022-12-29T14:48:46.004Z,79.22
2022-12-29T14:53:51.124Z,79.30
2022-12-29T14:58:58.196Z,79.24
2022-12-29T15:04:15.026Z,79.41
2022-12-29T15:09:26.612Z,79.56
2022-12-29T15:14:49.426Z,79.60
2022-12-29T15:19:54.189Z,79.84
2022-12-29T15:24:58.562Z,80.12
2022-12-29T15:30:05.116Z,80.18
2022-12-29T15:35:35.857Z,80.38
2022-12-29T15:40:39.824Z,80.48
2022-12-29T15:45:43.919Z,80.48
2022-12-29T15:50:48.960Z,80.70
2022-12-29T15:55:55.970Z,80.80
2022-12-29T16:01:03.916Z,80.84
2022-12-29T16:06:33.286Z,80.79
2022-12-29T16:11:40.751Z,81.10
2022-12-29T16:16:46.151Z,81.06
2022-12-29T16:21:50.331Z,81.27
2022-12-29T16:27:04.003Z,81.37
2022-12-29T16:32:29.193Z,81.52
2022-12-29T16:37:35.627Z,81.47
2022-12-29T16:42:47.095Z,81.74
2022-12-29T16:48:06.986Z,81.91
2022-12-29T16:53:25.508Z,81.98
2022-12-29T16:58:33.066Z,81.99
2022-12-29T17:03:43.062Z,82.15
2022-12-29T17:08:48.143Z,82.24
2022-12-29T17:13:51.860Z,82.55
2022-12-29T17:44:38.951Z,82.66
2022-12-29T17:50:16.598Z,82.71
2022-12-29T17:55:53.664Z,82.74
2022-12-29T18:01:36.319Z,82.90
2022-12-29T18:07:15.632Z,82.89
2022-12-29T18:12:54.679Z,83.13
2022-12-29T18:18:34.676Z,83.34
2022-12-29T18:24:11.823Z,83.30
2022-12-29T18:29:48.661Z,83.44
2022-12-29T18:35:53.653Z,83.55
2022-12-29T18:41:33.673Z,83.40
2022-12-29T18:47:10.858Z,83.28
2022-12-29T18:52:47.543Z,83.66
2022-12-29T18:58:29.226Z,83.82
2022-12-29T19:04:10.622Z,84.19
2022-12-29T19:09:47.594Z,84.27
2022-12-29T19:15:30.635Z,84.27
2022-12-29T19:21:08.569Z,84.31
2022-12-29T19:26:47.554Z,84.30
2022-12-29T19:32:24.867Z,84.39
2022-12-29T19:38:02.656Z,84.30
2022-12-29T19:43:39.522Z,84.32
2022-12-29T19:49:16.499Z,84.51
2022-12-29T19:54:53.639Z,84.46
2022-12-29T20:00:30.713Z,84.72
2022-12-29T20:06:07.608Z,84.76
2022-12-29T20:11:44.645Z,85.09
2022-12-29T20:17:32.513Z,85.10
2022-12-29T20:23:15.671Z,85.36
2022-12-29T20:28:52.992Z,85.48
2022-12-29T20:34:36.613Z,85.56
2022-12-29T20:40:13.659Z,85.76
2022-12-29T20:45:50.794Z,85.78
2022-12-29T20:51:27.893Z,86.01
2022-12-29T20:57:04.654Z,86.34
2022-12-29T21:16:05.767Z,86.95
2022-12-29T21:21:42.721Z,86.78
2022-12-29T21:27:19.654Z,86.83
2022-12-29T21:32:56.644Z,86.87
2022-12-29T21:38:38.658Z,86.94
2022-12-29T21:44:35.069Z,87.08
2022-12-29T21:50:11.778Z,87.09
2022-12-29T21:55:48.710Z,87.76
2022-12-29T22:01:45.888Z,87.69
2022-12-29T22:07:42.673Z,87.92
2022-12-29T22:13:19.798Z,88.11
2022-12-29T22:18:56.707Z,88.34
2022-12-29T22:24:33.731Z,88.41
2022-12-29T22:30:10.752Z,88.54
2022-12-29T22:35:47.757Z,88.66
2022-12-29T22:41:24.708Z,88.66
2022-12-29T22:47:01.691Z,88.72
2022-12-29T22:52:38.616Z,89.09
2022-12-29T22:58:16.668Z,89.34
2022-12-29T23:04:05.915Z,89.36
2022-12-29T23:09:50.869Z,89.29
2022-12-29T23:15:27.730Z,89.49
2022-12-29T23:21:04.684Z,89.56
2022-12-29T23:26:48.749Z,89.33
2022-12-29T23:32:25.627Z,89.22
2022-12-29T23:38:02.728Z,89.21
2022-12-29T23:43:39.732Z,89.41
2022-12-29T23:49:16.679Z,89.62
2022-12-29T23:54:53.746Z,89.81
